»·PEaware :: KLM525 KSFO-KRNO

KLM525 :: KSFO-KRNO

FLIGHT INFORMATION

Flight Status: Arrived
Operator:
KLM
More flights by this operator :: More flights under this callsign
Pilot: Kim B. (19519)
Aircraft: BOEING 737-800
(B738)
More flights by this aircraft type
Origin: KSFO San Francisco Intl
United States
Destination: KRNO Reno/Tahoe Intl
United States
More flights between these airports :: More routes between these airports
Route: TRUKN2 ORRCA TARVR SPOON
File this flight plan on PilotEdge
Remarks: PBN / A1B1C1D1S1S2 DOF / 181014 REG / PH-MBL OPR / KLM PER / C RMK / TCAS SIMBRIEF
Altitude:
(Current/Filed)
23,000ft
Speed:
(Current/Filed)
413kts
Departed: 13-Oct-18 06:59 PM
Arrived: 13-Oct-18 07:38 PM
Distance/Time
Traveled:
166nm/0:39
Distance/Time
To Go:
Arrived

Flight Plot

Page will automatically refresh every two minutes.

Flight plan parsing failed; only flown route is shown


Map Options




Map Legend


Flown Route
Filed Route
Departure Airport
Arrival Airport
Navaid (VOR, NDB)
Fix

Horizontal Profiles

Position Reports

Time Latitude Longitude Heading Altitude Ground
Speed
13-Oct-18 18:22 37.617862 -122.380614 257 17ft 0kts
13-Oct-18 18:23 37.617862 -122.380614 257 17ft 0kts
13-Oct-18 18:24 37.617862 -122.380614 257 17ft 0kts
13-Oct-18 18:25 37.617862 -122.380614 257 17ft 0kts
13-Oct-18 18:26 37.617862 -122.380614 257 17ft 0kts
13-Oct-18 18:27 37.617862 -122.380614 257 17ft 0kts
13-Oct-18 18:28 37.617862 -122.380614 257 17ft 0kts
13-Oct-18 18:29 37.617862 -122.380614 257 17ft 0kts
13-Oct-18 18:30 37.617862 -122.380614 257 17ft 0kts
13-Oct-18 18:31 37.617862 -122.380614 257 17ft 0kts
13-Oct-18 18:32 37.617862 -122.380614 257 17ft 0kts
13-Oct-18 18:33 37.617862 -122.380614 257 17ft 0kts
13-Oct-18 18:34 37.617862 -122.380614 257 17ft 0kts
13-Oct-18 18:35 37.617862 -122.380614 257 17ft 0kts
13-Oct-18 18:36 37.617862 -122.380614 257 17ft 0kts
13-Oct-18 18:37 37.617862 -122.380614 257 17ft 0kts
13-Oct-18 18:38 37.617862 -122.380614 257 17ft 0kts
13-Oct-18 18:39 37.617862 -122.380614 257 17ft 0kts
13-Oct-18 18:40 37.617862 -122.380614 257 17ft 0kts
13-Oct-18 18:41 37.617862 -122.380614 257 17ft 0kts
13-Oct-18 18:42 37.617862 -122.380614 257 17ft 0kts
13-Oct-18 18:43 37.617862 -122.380614 257 17ft 0kts
13-Oct-18 18:44 37.617862 -122.380614 257 17ft 0kts
13-Oct-18 18:45 37.617862 -122.380614 257 17ft 0kts
13-Oct-18 18:46 37.617862 -122.380614 257 17ft 0kts
13-Oct-18 18:47 37.617862 -122.380614 257 17ft 0kts
13-Oct-18 18:48 37.617862 -122.380614 257 17ft 0kts
13-Oct-18 18:49 37.617862 -122.380612 257 17ft 0kts
13-Oct-18 18:50 37.617977 -122.379964 247 17ft 2kts
13-Oct-18 18:51 37.618414 -122.379788 149 17ft 0kts
13-Oct-18 18:52 37.617132 -122.379474 187 17ft 0kts
13-Oct-18 18:53 37.617132 -122.379474 187 17ft 0kts
13-Oct-18 18:54 37.617132 -122.379474 187 17ft 0kts
13-Oct-18 18:55 37.616992 -122.379500 189 17ft 0kts
13-Oct-18 18:56 37.613987 -122.381398 208 17ft 22kts
13-Oct-18 18:57 37.609252 -122.384742 197 17ft 11kts
13-Oct-18 18:58 37.608499 -122.383973 117 16ft 0kts
13-Oct-18 18:59 37.608244 -122.383317 110 17ft 8kts
13-Oct-18 19:00 37.608531 -122.382520 32 17ft 0kts
13-Oct-18 19:01 37.630270 -122.366543 31 626ft 179kts
13-Oct-18 19:02 37.668526 -122.305914 51 3116ft 266kts
13-Oct-18 19:03 37.708493 -122.232755 54 6938ft 272kts
13-Oct-18 19:04 37.764356 -122.171578 33 9833ft 286kts
13-Oct-18 19:05 37.828101 -122.114514 34 10002ft 281kts
13-Oct-18 19:06 37.889963 -122.058533 34 9976ft 281kts
13-Oct-18 19:07 37.951446 -122.002796 35 11960ft 312kts
13-Oct-18 19:08 38.017348 -121.942826 35 15019ft 326kts
13-Oct-18 19:09 38.090014 -121.876536 34 18066ft 341kts
13-Oct-18 19:10 38.158064 -121.814333 34 19269ft 356kts
13-Oct-18 19:11 38.235603 -121.743261 34 22183ft 362kts
13-Oct-18 19:12 38.316120 -121.669310 34 22864ft 392kts
13-Oct-18 19:13 38.399265 -121.592296 37 22859ft 407kts
13-Oct-18 19:14 38.453763 -121.495329 64 22864ft 414kts
13-Oct-18 19:15 38.481446 -121.377737 71 22861ft 417kts
13-Oct-18 19:16 38.508881 -121.250098 72 22856ft 417kts
13-Oct-18 19:17 38.534824 -121.128731 72 22869ft 417kts
13-Oct-18 19:18 38.562539 -120.998368 72 22908ft 417kts
13-Oct-18 19:19 38.588915 -120.873591 72 22944ft 417kts
13-Oct-18 19:20 38.617025 -120.739842 72 22966ft 417kts
13-Oct-18 19:21 38.640551 -120.627265 72 22971ft 417kts
13-Oct-18 19:22 38.672775 -120.472100 72 22967ft 413kts
13-Oct-18 19:23 38.697478 -120.352039 71 23041ft 378kts
13-Oct-18 19:24 38.723591 -120.224718 72 23124ft 377kts
13-Oct-18 19:25 38.745163 -120.118869 72 21826ft 365kts
13-Oct-18 19:26 38.775071 -119.971447 73 19386ft 359kts
13-Oct-18 19:27 38.794279 -119.881902 65 17760ft 355kts
13-Oct-18 19:28 38.846332 -119.804104 34 16210ft 322kts
13-Oct-18 19:29 38.914147 -119.772431 5 16095ft 330kts
13-Oct-18 19:30 38.984781 -119.770833 1 16099ft 326kts
13-Oct-18 19:31 39.060888 -119.770558 1 14933ft 334kts
13-Oct-18 19:32 39.124857 -119.770394 1 12402ft 349kts
13-Oct-18 19:33 39.208287 -119.770254 1 10002ft 258kts
13-Oct-18 19:34 39.277999 -119.770027 2 8886ft 182kts
13-Oct-18 19:35 39.318054 -119.769856 1 8223ft 172kts
13-Oct-18 19:36 39.365547 -119.769693 1 7171ft 168kts
13-Oct-18 19:37 39.407462 -119.769559 1 6218ft 151kts
13-Oct-18 19:38 39.446975 -119.769429 1 5307ft 142kts
13-Oct-18 19:39 39.484978 -119.769301 1 4473ft 141kts
13-Oct-18 19:40 39.503264 -119.770118 310 4410ft 0kts
13-Oct-18 19:41 39.503352 -119.770251 310 4410ft 5kts
13-Oct-18 19:42 39.503676 -119.770804 297 4410ft 6kts
13-Oct-18 19:43 39.504832 -119.772140 277 4411ft 0kts
13-Oct-18 19:44 39.504856 -119.772246 278 4412ft 0kts
13-Oct-18 19:45 39.504857 -119.772301 270 4412ft 0kts
13-Oct-18 19:46 39.504857 -119.772301 270 4412ft 0kts
13-Oct-18 19:47 39.504857 -119.772301 270 4412ft 0kts
13-Oct-18 19:48 39.504857 -119.772301 270 4412ft 0kts
13-Oct-18 19:49 39.504857 -119.772301 270 4412ft 0kts
13-Oct-18 19:50 39.504857 -119.772301 270 4412ft 0kts
13-Oct-18 19:51 39.504857 -119.772301 270 4412ft 0kts
13-Oct-18 19:52 39.504857 -119.772301 270 4412ft 0kts
13-Oct-18 19:53 39.504857 -119.772301 270 4412ft 0kts
13-Oct-18 19:54 39.504857 -119.772301 270 4412ft 0kts
13-Oct-18 19:55 39.504857 -119.772301 270 4412ft 0kts

Navigation Log

Ident Type
Flight plan parsing failed, navigation log unavailable